Time;durP1;ratioP1;P1;durP2;ratioP2;P2;SDS_P1;SDS_P2;PMS_P1;PMS_P2;Temp;Humidity;BMP_temperature;BMP_pressure;BME280_temperature;BME280_humidity;BME280_pressure;Samples;Min_cycle;Max_cycle;Signal;HPM_P1;HPM_P2
2023/07/05 00:01:38;;;;;;;;;7.67;7.33;;;;;16.87;73.32;100816.69;5015493;28;45869;-38
2023/07/05 00:04:03;;;;;;;;;12.33;7.00;;;;;16.80;73.28;100818.09;5008964;28;45269;-39
2023/07/05 00:06:29;;;;;;;;;7.67;6.33;;;;;16.75;73.55;100822.13;5008404;28;45546;-39
2023/07/05 00:08:54;;;;;;;;;10.00;7.00;;;;;16.71;73.72;100826.88;5005771;28;57059;-39
2023/07/05 00:11:19;;;;;;;;;9.00;7.33;;;;;16.69;74.05;100827.00;5016547;28;46017;-39
2023/07/05 00:13:45;;;;;;;;;9.00;8.67;;;;;16.63;74.28;100831.97;5017761;28;54081;-38
2023/07/05 00:16:11;;;;;;;;;10.00;9.00;;;;;16.58;74.23;100834.97;5015970;28;45830;-39
2023/07/05 00:18:37;;;;;;;;;10.00;7.67;;;;;16.50;75.36;100832.91;5015866;28;45367;-38
2023/07/05 00:21:04;;;;;;;;;8.33;8.00;;;;;16.45;74.51;100837.75;5016804;28;46297;-39
2023/07/05 00:23:32;;;;;;;;;7.67;7.00;;;;;16.42;74.02;100842.50;5015466;28;45527;-39
2023/07/05 00:25:57;;;;;;;;;14.67;12.00;;;;;16.34;74.93;100830.47;5016507;28;45431;-39
2023/07/05 00:28:23;;;;;;;;;8.67;7.00;;;;;16.27;75.15;100842.66;5028288;28;63666;-39
2023/07/05 00:30:48;;;;;;;;;12.00;8.33;;;;;16.28;75.62;100844.38;5020934;28;45344;-38
2023/07/05 00:33:14;;;;;;;;;6.00;4.33;;;;;16.29;75.02;100843.38;5018631;28;45573;-38
2023/07/05 00:35:53;;;;;;;;;7.00;7.00;;;;;16.25;74.88;100847.25;5021075;28;45337;-38
2023/07/05 00:38:19;;;;;;;;;10.67;9.33;;;;;16.20;74.48;100846.75;5019141;28;45557;-38
2023/07/05 00:40:46;;;;;;;;;17.67;11.67;;;;;16.13;74.81;100842.81;5020640;28;45548;-38
2023/07/05 00:43:12;;;;;;;;;10.33;8.67;;;;;16.08;74.73;100859.22;5020058;28;45418;-38
2023/07/05 00:45:56;;;;;;;;;6.67;6.67;;;;;16.00;74.39;100859.78;5020762;28;45482;-38
2023/07/05 00:48:41;;;;;;;;;10.67;8.33;;;;;15.97;74.16;100867.19;5019484;28;45303;-39
2023/07/05 00:51:20;;;;;;;;;11.67;9.00;;;;;15.96;74.07;100860.97;5016955;28;45300;-38
2023/07/05 00:53:45;;;;;;;;;13.33;10.00;;;;;15.93;73.89;100873.72;5016524;28;45438;-38
2023/07/05 00:56:24;;;;;;;;;11.67;10.00;;;;;15.90;74.35;100874.81;5017795;28;45499;-39
2023/07/05 00:58:50;;;;;;;;;8.67;8.67;;;;;15.90;74.42;100877.50;5019191;28;45562;-39
2023/07/05 01:01:16;;;;;;;;;11.67;8.00;;;;;15.87;74.27;100883.94;5016464;28;46086;-38
2023/07/05 01:03:43;;;;;;;;;9.00;9.00;;;;;15.81;73.96;100895.13;5019362;28;45632;-38
2023/07/05 01:06:12;;;;;;;;;7.33;7.33;;;;;15.77;73.84;100892.72;5020342;28;45424;-39
2023/07/05 01:08:38;;;;;;;;;11.67;8.67;;;;;15.73;73.60;100894.75;5016184;28;45657;-39
2023/07/05 01:11:18;;;;;;;;;8.33;8.33;;;;;15.73;74.00;100901.94;5018764;28;45858;-39
2023/07/05 01:13:54;;;;;;;;;9.67;8.00;;;;;15.70;74.27;100895.81;5019627;28;45170;-38
2023/07/05 01:16:33;;;;;;;;;9.00;8.00;;;;;15.68;74.06;100905.81;5028571;28;45811;-38
2023/07/05 01:19:26;;;;;;;;;6.67;6.00;;;;;15.66;73.75;100913.09;5016939;28;45613;-39
2023/07/05 01:21:57;;;;;;;;;8.67;7.00;;;;;15.62;73.39;100900.00;5020421;28;46352;-38
2023/07/05 01:24:50;;;;;;;;;12.33;9.00;;;;;15.58;73.91;100893.13;5017420;28;45328;-39
2023/07/05 01:27:43;;;;;;;;;7.33;6.00;;;;;15.54;74.22;100897.88;5018542;28;45372;-38
2023/07/05 01:30:15;;;;;;;;;7.67;7.67;;;;;15.49;74.00;100897.34;5019223;28;45628;-39
2023/07/05 01:33:00;;;;;;;;;8.67;7.00;;;;;15.41;74.45;100891.63;5019913;28;46298;-38
2023/07/05 01:35:29;;;;;;;;;8.00;7.00;;;;;15.38;74.12;100896.25;5017205;28;45510;-38
2023/07/05 01:37:55;;;;;;;;;9.00;6.33;;;;;15.39;74.25;100903.31;5017233;28;45780;-39
2023/07/05 01:40:21;;;;;;;;;10.00;8.33;;;;;15.48;73.44;100919.75;5018724;28;45368;-38
2023/07/05 01:42:48;;;;;;;;;12.67;6.33;;;;;15.56;73.27;100917.38;5016098;28;46257;-38
2023/07/05 01:45:15;;;;;;;;;6.00;6.00;;;;;15.64;72.91;100917.69;5017730;28;45873;-38
2023/07/05 01:47:58;;;;;;;;;9.33;5.33;;;;;15.68;72.62;100924.59;5018475;28;45490;-39
2023/07/05 01:50:34;;;;;;;;;9.67;6.67;;;;;15.70;72.23;100932.50;5016250;28;45525;-38
2023/07/05 01:53:04;;;;;;;;;7.67;5.67;;;;;15.75;72.26;100941.09;5016556;28;45443;-39
2023/07/05 01:55:56;;;;;;;;;5.00;4.67;;;;;15.80;72.01;100935.41;5017575;28;45438;-38
2023/07/05 01:58:25;;;;;;;;;5.00;4.00;;;;;15.81;70.58;100953.25;5024466;28;45356;-38
2023/07/05 02:00:52;;;;;;;;;5.00;5.00;;;;;15.80;70.82;100951.50;5017800;28;45635;-38
2023/07/05 02:03:19;;;;;;;;;4.00;4.00;;;;;15.79;70.56;100947.97;5018533;28;47205;-39
2023/07/05 02:05:47;;;;;;;;;4.00;4.00;;;;;15.75;70.54;100946.47;5013946;28;45438;-38
2023/07/05 02:08:13;;;;;;;;;4.33;2.33;;;;;15.68;70.19;100948.72;5015311;28;45455;-38
2023/07/05 02:10:38;;;;;;;;;5.67;3.00;;;;;15.61;70.13;100950.09;5016856;28;45329;-39
2023/07/05 02:13:07;;;;;;;;;3.33;3.00;;;;;15.53;69.69;100949.75;5017398;28;45488;-39
2023/07/05 02:15:33;;;;;;;;;3.00;3.00;;;;;15.45;69.74;100952.09;5012694;28;45357;-38
2023/07/05 02:17:59;;;;;;;;;3.00;3.00;;;;;15.41;69.67;100966.66;5016946;28;45615;-38
2023/07/05 02:20:24;;;;;;;;;2.33;2.33;;;;;15.33;69.76;100960.03;5014841;28;45348;-39
2023/07/05 02:22:49;;;;;;;;;2.00;2.00;;;;;15.27;69.87;100960.44;5013146;28;68803;-39
2023/07/05 02:25:15;;;;;;;;;4.33;3.00;;;;;15.20;70.21;100967.16;5017677;28;66342;-38
2023/07/05 02:27:40;;;;;;;;;3.00;3.00;;;;;15.17;69.86;100970.03;5017284;28;61829;-38
2023/07/05 02:30:09;;;;;;;;;4.00;4.00;;;;;15.15;70.09;100964.78;5017982;28;45615;-38
2023/07/05 02:32:34;;;;;;;;;2.00;2.00;;;;;15.13;70.21;100965.84;5016568;28;45498;-39
2023/07/05 02:35:03;;;;;;;;;4.00;2.00;;;;;15.11;70.48;100965.09;5016621;28;66437;-39
2023/07/05 02:37:31;;;;;;;;;2.00;2.00;;;;;15.09;70.26;100967.88;5016636;28;45407;-39
2023/07/05 02:39:56;;;;;;;;;5.00;4.00;;;;;15.09;70.63;100980.41;5017672;28;45411;-38
2023/07/05 02:42:22;;;;;;;;;3.33;3.33;;;;;15.04;70.27;100976.22;5016229;28;72092;-38
2023/07/05 02:44:48;;;;;;;;;4.00;2.67;;;;;15.01;70.35;100978.25;5017512;28;45520;-39
2023/07/05 02:47:14;;;;;;;;;3.00;3.00;;;;;14.95;71.10;100981.31;5016364;28;45566;-38
2023/07/05 02:49:39;;;;;;;;;3.00;2.33;;;;;14.93;70.79;100988.59;5016148;28;45552;-38
2023/07/05 02:52:05;;;;;;;;;3.00;3.00;;;;;14.90;70.88;100995.03;5018434;28;46229;-38
2023/07/05 02:54:30;;;;;;;;;4.33;4.33;;;;;14.89;71.10;100995.97;5018583;28;45260;-39
2023/07/05 02:56:55;;;;;;;;;3.00;3.00;;;;;14.88;71.29;100994.25;5017300;28;59717;-38
2023/07/05 02:59:22;;;;;;;;;5.33;3.00;;;;;14.85;70.88;100999.81;5017090;28;63350;-38
2023/07/05 03:01:47;;;;;;;;;6.00;3.33;;;;;14.79;71.43;101005.56;5017681;28;46127;-38
2023/07/05 03:04:13;;;;;;;;;3.67;2.00;;;;;14.77;71.54;100999.44;5013226;28;68850;-38
2023/07/05 03:06:38;;;;;;;;;4.00;2.00;;;;;14.74;71.20;100991.63;5016843;28;45392;-38
2023/07/05 03:09:04;;;;;;;;;1.33;1.33;;;;;14.72;71.34;100995.25;5014870;28;68396;-38
2023/07/05 03:11:29;;;;;;;;;1.33;1.33;;;;;14.73;71.29;101006.81;5016889;28;72512;-38
2023/07/05 03:13:54;;;;;;;;;3.00;3.00;;;;;14.70;71.32;100990.94;5016366;28;68278;-39
2023/07/05 03:16:20;;;;;;;;;2.00;2.00;;;;;14.65;71.65;101003.75;5017030;28;65137;-38
2023/07/05 03:18:45;;;;;;;;;5.67;3.00;;;;;14.62;71.47;101001.25;5015443;28;62358;-38
2023/07/05 03:21:10;;;;;;;;;5.33;3.00;;;;;14.59;71.53;101002.31;5015869;28;71818;-38
2023/07/05 03:23:36;;;;;;;;;3.00;3.00;;;;;14.51;71.79;100996.56;5014715;28;53415;-40
2023/07/05 03:26:04;;;;;;;;;3.33;1.67;;;;;14.46;71.66;101006.75;5017424;28;45383;-39
2023/07/05 03:28:31;;;;;;;;;1.00;1.00;;;;;14.44;71.50;101014.00;5013224;28;46615;-39
2023/07/05 03:31:11;;;;;;;;;3.67;2.67;;;;;14.40;71.86;101018.66;5014324;28;46531;-41
2023/07/05 03:33:36;;;;;;;;;2.33;2.33;;;;;14.32;72.05;101024.50;5017821;28;45513;-39
2023/07/05 03:36:07;;;;;;;;;5.00;2.00;;;;;14.30;72.07;101025.53;5017952;28;45487;-45
2023/07/05 03:38:33;;;;;;;;;1.67;1.67;;;;;14.26;72.31;101038.25;5011375;28;45471;-38
2023/07/05 03:41:07;;;;;;;;;2.67;2.67;;;;;14.24;71.77;101024.13;5013136;28;45317;-38
2023/07/05 03:43:35;;;;;;;;;6.33;2.33;;;;;14.24;71.93;101037.50;5017054;28;45340;-38
2023/07/05 03:46:02;;;;;;;;;3.00;2.33;;;;;14.23;71.74;101041.97;5012004;28;45527;-38
2023/07/05 03:48:34;;;;;;;;;2.00;2.00;;;;;14.23;71.98;101035.78;5010977;28;45517;-38
2023/07/05 03:51:00;;;;;;;;;4.67;2.67;;;;;14.19;71.99;101043.13;5014307;28;45584;-38
2023/07/05 03:53:26;;;;;;;;;2.00;2.00;;;;;14.17;72.49;101045.03;5015720;28;45974;-38
2023/07/05 03:55:51;;;;;;;;;3.00;2.00;;;;;14.18;72.23;101061.94;5015011;28;45772;-39
2023/07/05 03:58:17;;;;;;;;;3.00;3.00;;;;;14.17;71.79;101058.41;5014678;28;45553;-38
2023/07/05 04:00:42;;;;;;;;;4.00;3.00;;;;;14.17;72.18;101061.09;5015992;28;58946;-38
2023/07/05 04:03:08;;;;;;;;;2.67;1.00;;;;;14.15;71.94;101071.00;5017944;28;68937;-39
2023/07/05 04:05:34;;;;;;;;;2.67;1.67;;;;;14.16;71.99;101074.56;5021596;28;45333;-38
2023/07/05 04:07:59;;;;;;;;;4.33;1.00;;;;;14.16;72.32;101071.91;5021395;28;45381;-39
2023/07/05 04:10:25;;;;;;;;;3.00;1.00;;;;;14.18;72.40;101075.31;5018755;28;50251;-38
2023/07/05 04:12:50;;;;;;;;;1.00;1.00;;;;;14.23;72.24;101083.94;5019106;28;45589;-39
2023/07/05 04:15:15;;;;;;;;;4.00;2.00;;;;;14.25;72.30;101076.69;5017373;28;66078;-38
2023/07/05 04:17:41;;;;;;;;;2.33;2.33;;;;;14.29;72.28;101083.56;5019377;28;64420;-39
2023/07/05 04:20:07;;;;;;;;;2.00;2.00;;;;;14.35;72.06;101088.53;5017788;28;68748;-39
2023/07/05 04:22:35;;;;;;;;;2.00;2.00;;;;;14.42;71.85;101088.16;5020139;28;45314;-45
2023/07/05 04:25:00;;;;;;;;;2.00;2.00;;;;;14.46;71.40;101097.72;5020782;28;45466;-38
2023/07/05 04:27:25;;;;;;;;;3.67;2.67;;;;;14.50;71.65;101099.25;5017651;28;68239;-38
2023/07/05 04:29:51;;;;;;;;;3.33;2.00;;;;;14.49;71.22;101101.06;5015288;28;71060;-38
2023/07/05 04:32:16;;;;;;;;;2.33;2.33;;;;;14.47;71.65;101104.78;5015690;28;66844;-39
2023/07/05 04:34:41;;;;;;;;;5.00;2.00;;;;;14.50;72.07;101115.31;5003498;28;57183;-38
2023/07/05 04:37:07;;;;;;;;;4.67;3.33;;;;;14.53;71.35;101107.94;5001322;28;45379;-38
2023/07/05 04:39:32;;;;;;;;;3.33;2.67;;;;;14.54;71.53;101108.81;5011125;28;66851;-39
2023/07/05 04:41:57;;;;;;;;;3.67;2.67;;;;;14.54;71.26;101115.00;5016182;28;45359;-39
2023/07/05 04:44:23;;;;;;;;;5.00;5.00;;;;;14.55;71.16;101110.53;5022025;28;55233;-39
2023/07/05 04:46:48;;;;;;;;;3.00;3.00;;;;;14.58;71.60;101120.19;4991669;28;46608;-39
2023/07/05 04:49:13;;;;;;;;;2.00;2.00;;;;;14.60;71.17;101112.91;5018139;28;73570;-38
2023/07/05 04:51:39;;;;;;;;;3.67;3.00;;;;;14.61;71.32;101109.28;5017794;28;71166;-38
2023/07/05 04:54:04;;;;;;;;;2.00;2.00;;;;;14.64;71.38;101109.13;5018214;28;66708;-39
2023/07/05 04:56:29;;;;;;;;;2.00;2.00;;;;;14.69;71.48;101112.38;5018979;28;66014;-38
2023/07/05 04:58:56;;;;;;;;;0.00;0.00;;;;;14.76;71.18;101118.19;5016344;28;65131;-38
2023/07/05 05:01:21;;;;;;;;;4.33;3.00;;;;;14.79;71.81;101113.53;5011056;28;45395;-38
2023/07/05 05:03:47;;;;;;;;;7.67;2.67;;;;;14.85;71.55;101123.00;5017900;28;46739;-38
2023/07/05 05:06:12;;;;;;;;;3.33;2.00;;;;;14.86;70.86;101122.03;5005800;28;45365;-39
2023/07/05 05:08:37;;;;;;;;;3.00;3.00;;;;;14.86;71.43;101122.91;5018656;28;74570;-38
2023/07/05 05:11:04;;;;;;;;;2.67;2.67;;;;;14.85;71.54;101126.53;5012959;28;68251;-38
2023/07/05 05:13:31;;;;;;;;;5.00;2.00;;;;;14.82;71.57;101133.88;5011355;28;45274;-38
2023/07/05 05:15:57;;;;;;;;;7.33;3.00;;;;;14.85;71.73;101128.38;5019366;28;45461;-38
2023/07/05 05:18:23;;;;;;;;;3.67;3.67;;;;;14.89;71.95;101127.19;5012834;28;46232;-38
2023/07/05 05:20:49;;;;;;;;;4.67;2.33;;;;;14.95;71.77;101128.63;5017286;28;45580;-39
2023/07/05 05:23:14;;;;;;;;;5.00;3.00;;;;;14.98;71.83;101123.06;5019595;28;45423;-39
2023/07/05 05:25:42;;;;;;;;;7.00;4.33;;;;;15.01;72.04;101126.41;5018720;28;45476;-38
2023/07/05 05:28:07;;;;;;;;;4.00;4.00;;;;;15.11;71.58;101125.81;5009602;28;46276;-38
2023/07/05 05:30:34;;;;;;;;;3.33;3.00;;;;;15.24;71.40;101126.78;5006854;28;45407;-38
2023/07/05 05:33:00;;;;;;;;;3.33;3.33;;;;;15.46;71.49;101131.59;5012558;28;45440;-39
2023/07/05 05:35:27;;;;;;;;;5.00;5.00;;;;;15.69;71.37;101127.38;5004005;28;45645;-39
2023/07/05 05:37:52;;;;;;;;;3.67;2.33;;;;;15.93;70.22;101136.59;5000831;28;46107;-38
2023/07/05 05:40:18;;;;;;;;;4.67;4.00;;;;;16.18;69.87;101139.34;5012103;28;63390;-39
2023/07/05 05:42:44;;;;;;;;;2.00;2.00;;;;;16.46;69.13;101144.63;5007611;28;61996;-38
2023/07/05 05:45:10;;;;;;;;;4.00;2.67;;;;;16.61;68.65;101134.66;5006570;28;45268;-38
2023/07/05 05:47:35;;;;;;;;;5.00;3.00;;;;;16.61;67.80;101129.28;5019014;28;45420;-38
2023/07/05 05:50:01;;;;;;;;;5.67;4.00;;;;;16.81;67.70;101139.47;5004198;28;45462;-38
2023/07/05 05:52:27;;;;;;;;;5.33;3.33;;;;;16.95;67.38;101143.91;5019189;28;45423;-39
2023/07/05 05:54:52;;;;;;;;;3.33;2.67;;;;;16.98;66.82;101137.44;5009362;28;45262;-39
2023/07/05 05:57:18;;;;;;;;;5.00;5.00;;;;;16.97;66.50;101143.78;5009406;28;45418;-45
2023/07/05 05:59:43;;;;;;;;;4.67;4.67;;;;;16.96;66.40;101142.06;5016889;28;72799;-38
2023/07/05 06:02:09;;;;;;;;;3.00;3.00;;;;;16.92;66.30;101149.50;5017237;28;57599;-38
2023/07/05 06:04:34;;;;;;;;;5.33;3.67;;;;;16.94;66.69;101157.44;5014199;28;45631;-39
2023/07/05 06:06:59;;;;;;;;;2.33;2.33;;;;;17.01;66.82;101158.72;5003576;28;45921;-38
2023/07/05 06:09:25;;;;;;;;;3.00;2.00;;;;;17.14;66.32;101158.69;5014372;28;73131;-39
2023/07/05 06:11:51;;;;;;;;;4.33;4.33;;;;;17.31;66.02;101161.03;5014465;28;45622;-39
2023/07/05 06:14:16;;;;;;;;;4.33;3.00;;;;;17.51;65.64;101169.47;5009196;28;45436;-39
2023/07/05 06:16:41;;;;;;;;;5.67;3.00;;;;;17.76;65.53;101164.97;5014837;28;45961;-39
2023/07/05 06:19:07;;;;;;;;;2.67;2.67;;;;;17.94;63.98;101173.50;5013066;28;52146;-39
2023/07/05 06:21:32;;;;;;;;;4.00;3.00;;;;;18.08;64.12;101165.25;5010969;28;45555;-39
2023/07/05 06:23:58;;;;;;;;;4.33;3.00;;;;;18.28;63.49;101171.78;5014889;28;64738;-39
2023/07/05 06:26:23;;;;;;;;;4.00;3.00;;;;;18.34;63.20;101165.06;5017244;28;74952;-39
2023/07/05 06:28:48;;;;;;;;;2.67;2.33;;;;;18.48;62.82;101174.78;5020343;28;45360;-39
2023/07/05 06:31:16;;;;;;;;;4.33;1.00;;;;;18.58;62.41;101169.56;5018042;28;45327;-39
2023/07/05 06:33:41;;;;;;;;;3.00;2.00;;;;;18.58;62.33;101172.25;5014874;28;45707;-39
2023/07/05 06:36:07;;;;;;;;;3.00;3.00;;;;;18.76;61.89;101170.78;5015594;28;50240;-39
2023/07/05 06:38:33;;;;;;;;;5.33;3.33;;;;;18.95;61.60;101162.13;5000408;28;45363;-39
2023/07/05 06:40:59;;;;;;;;;3.00;1.33;;;;;21.10;60.29;101163.06;5018139;28;45416;-39
2023/07/05 06:43:24;;;;;;;;;3.67;3.00;;;;;23.40;56.94;101167.91;4999379;28;45502;-39
2023/07/05 06:45:52;;;;;;;;;6.33;2.67;;;;;23.16;53.20;101173.03;5010326;28;45910;-39
2023/07/05 06:48:17;;;;;;;;;3.00;2.33;;;;;23.43;53.08;101174.88;5017232;28;45341;-39
2023/07/05 06:50:42;;;;;;;;;2.67;2.67;;;;;25.72;51.81;101173.06;5015984;28;67023;-40
2023/07/05 06:53:08;;;;;;;;;3.33;2.67;;;;;25.88;48.05;101178.56;5016508;28;64418;-40
2023/07/05 06:55:38;;;;;;;;;4.33;2.33;;;;;24.62;47.04;101192.78;5012333;28;46131;-40
2023/07/05 06:58:03;;;;;;;;;3.00;3.00;;;;;23.72;48.18;101201.00;5011977;28;45701;-40
2023/07/05 07:00:28;;;;;;;;;4.00;2.33;;;;;23.11;48.70;101206.00;5016734;28;66754;-40
2023/07/05 07:02:54;;;;;;;;;3.67;3.00;;;;;22.45;49.85;101211.31;5017048;28;63499;-40
2023/07/05 07:05:19;;;;;;;;;6.00;3.33;;;;;21.96;50.97;101215.84;5006024;28;68744;-40
2023/07/05 07:07:44;;;;;;;;;4.00;3.00;;;;;21.61;50.26;101211.81;5016778;28;45494;-40
2023/07/05 07:10:10;;;;;;;;;2.33;2.00;;;;;21.95;50.43;101222.25;5015133;28;68727;-40
2023/07/05 07:12:35;;;;;;;;;7.33;3.33;;;;;21.70;50.56;101215.53;5016486;28;66979;-38
2023/07/05 07:15:00;;;;;;;;;4.00;2.67;;;;;21.48;51.33;101225.56;5012614;28;71546;-38
2023/07/05 07:17:26;;;;;;;;;3.67;2.00;;;;;22.78;50.39;101229.94;5014582;28;64152;-39
2023/07/05 07:19:51;;;;;;;;;4.00;3.00;;;;;23.23;49.00;101225.69;5014825;28;45422;-39
2023/07/05 07:22:17;;;;;;;;;5.00;3.67;;;;;23.11;49.03;101225.84;5016340;28;62716;-39
2023/07/05 07:24:42;;;;;;;;;4.33;2.67;;;;;24.81;47.23;101223.53;5009005;28;46961;-43
2023/07/05 07:27:08;;;;;;;;;3.00;2.00;;;;;25.29;43.66;101227.53;5021373;28;45459;-39
2023/07/05 07:29:35;;;;;;;;;2.00;2.00;;;;;25.22;44.25;101227.34;5016302;28;45529;-39
2023/07/05 07:32:01;;;;;;;;;1.67;1.67;;;;;25.40;44.75;101238.16;5015755;28;45711;-39
2023/07/05 07:34:27;;;;;;;;;5.00;2.67;;;;;25.15;43.56;101234.47;5022368;28;45419;-39
2023/07/05 07:36:52;;;;;;;;;5.00;3.00;;;;;26.30;44.52;101235.88;5013996;28;45345;-39
2023/07/05 07:39:18;;;;;;;;;5.00;2.00;;;;;27.04;42.38;101244.00;5007485;28;68973;-39
2023/07/05 07:41:43;;;;;;;;;4.00;4.00;;;;;26.85;37.91;101239.78;5009010;28;51126;-39
2023/07/05 07:44:10;;;;;;;;;4.00;4.00;;;;;26.98;40.67;101255.59;5008168;28;75510;-39
2023/07/05 07:46:36;;;;;;;;;3.33;3.33;;;;;27.74;41.39;101250.53;5016493;28;45574;-39
2023/07/05 07:49:03;;;;;;;;;4.00;2.50;;;;;28.04;39.77;101248.00;5017104;28;45500;-39
2023/07/05 07:51:30;;;;;;;;;4.25;3.00;;;;;26.84;38.33;101263.47;5017498;28;45694;-39
2023/07/05 07:53:56;;;;;;;;;3.50;3.25;;;;;25.46;41.05;101268.47;5013441;28;47247;-39
2023/07/05 07:56:23;;;;;;;;;3.75;2.00;;;;;24.33;41.84;101264.63;5019239;28;45447;-39
2023/07/05 07:58:51;;;;;;;;;2.67;2.00;;;;;23.64;43.48;101279.66;5019807;28;45584;-39
2023/07/05 08:01:25;;;;;;;;;4.75;3.75;;;;;23.78;44.10;101268.28;5016715;28;45647;-39
2023/07/05 08:03:52;;;;;;;;;4.25;2.25;;;;;25.20;43.15;101275.66;5015394;28;46302;-39
2023/07/05 08:06:18;;;;;;;;;4.00;3.00;;;;;24.85;42.14;101274.75;5015133;28;45512;-39
2023/07/05 08:08:43;;;;;;;;;3.00;2.00;;;;;24.21;42.86;101266.72;5015190;28;45658;-39
2023/07/05 08:11:09;;;;;;;;;4.33;2.67;;;;;24.98;42.46;101271.59;5009465;28;45482;-39
2023/07/05 08:13:36;;;;;;;;;4.00;2.75;;;;;26.14;42.49;101259.38;5013599;28;45435;-39
2023/07/05 08:16:02;;;;;;;;;1.00;1.00;;;;;28.23;40.49;101250.25;5012037;28;45387;-39
2023/07/05 08:18:28;;;;;;;;;3.50;3.50;;;;;29.78;39.02;101261.66;5015897;28;45419;-39
2023/07/05 08:20:53;;;;;;;;;1.25;1.25;;;;;32.46;34.47;101252.41;5010024;28;45553;-39
2023/07/05 08:23:19;;;;;;;;;3.25;3.00;;;;;34.51;33.34;101245.72;5014988;28;74245;-39
2023/07/05 08:25:45;;;;;;;;;2.00;2.00;;;;;34.83;30.23;101262.22;5015815;28;45785;-39
2023/07/05 08:28:13;;;;;;;;;4.25;2.25;;;;;34.85;29.14;101255.41;5015219;28;45459;-39
2023/07/05 08:30:39;;;;;;;;;2.50;2.50;;;;;35.00;30.08;101263.31;5016824;28;45525;-40
2023/07/05 08:33:04;;;;;;;;;4.50;3.50;;;;;36.63;28.61;101264.53;5013373;28;45392;-41
2023/07/05 08:35:31;;;;;;;;;3.50;2.25;;;;;36.81;27.93;101271.06;5012666;28;64655;-40
2023/07/05 08:37:56;;;;;;;;;4.25;2.00;;;;;37.35;26.61;101280.09;5015574;28;45516;-40
2023/07/05 08:40:33;;;;;;;;;2.75;2.50;;;;;36.16;25.83;101278.28;5014135;28;45541;-39
2023/07/05 08:43:04;;;;;;;;;4.50;3.50;;;;;34.04;28.12;101282.78;5013575;28;47084;-39
2023/07/05 08:45:37;;;;;;;;;4.00;3.00;;;;;31.93;28.55;101293.53;5014068;28;45453;-39
2023/07/05 08:48:04;;;;;;;;;5.00;3.00;;;;;30.36;30.76;101299.22;5011871;28;45388;-39
2023/07/05 08:50:36;;;;;;;;;5.50;3.00;;;;;29.13;31.29;101307.13;5019801;28;45302;-39
2023/07/05 08:53:18;;;;;;;;;6.00;4.25;;;;;28.04;32.87;101305.41;5017701;28;45504;-39
2023/07/05 08:55:46;;;;;;;;;2.00;2.00;;;;;27.94;34.45;101304.75;5014812;28;45648;-39
2023/07/05 08:58:15;;;;;;;;;3.25;3.00;;;;;29.89;33.20;101306.09;5015908;28;45316;-40
2023/07/05 09:00:45;;;;;;;;;3.00;3.00;;;;;30.53;31.80;101308.06;5033112;28;45802;-39
2023/07/05 09:03:11;;;;;;;;;2.25;2.25;;;;;30.14;31.31;101318.41;5018051;28;46314;-39
2023/07/05 09:05:45;;;;;;;;;4.50;4.50;;;;;29.07;32.08;101314.19;5016701;28;45360;-39
2023/07/05 09:08:22;;;;;;;;;2.25;2.25;;;;;28.00;32.81;101320.44;5019083;28;45448;-40
2023/07/05 09:10:56;;;;;;;;;4.00;4.00;;;;;27.06;33.51;101312.88;4997354;28;45522;-40
2023/07/05 09:13:38;;;;;;;;;2.00;2.00;;;;;26.38;35.09;101323.09;5016292;28;46374;-38
2023/07/05 09:16:23;;;;;;;;;3.50;3.50;;;;;26.03;35.73;101322.31;5014524;28;45548;-38
2023/07/05 09:19:05;;;;;;;;;2.75;2.50;;;;;27.43;35.67;101319.69;5016076;28;45530;-40
2023/07/05 09:21:36;;;;;;;;;3.50;3.00;;;;;28.85;34.07;101305.84;5018302;28;45444;-40
2023/07/05 09:24:22;;;;;;;;;1.00;1.00;;;;;28.23;33.82;101310.41;5012363;28;46211;-38
2023/07/05 09:26:58;;;;;;;;;2.00;2.00;;;;;27.11;34.62;101310.50;5017620;28;45635;-39
2023/07/05 09:29:30;;;;;;;;;5.25;4.00;;;;;27.76;35.33;101313.25;5012582;28;45845;-39
2023/07/05 09:31:56;;;;;;;;;4.00;1.00;;;;;30.28;33.04;101296.63;5017950;28;45605;-39
2023/07/05 09:34:30;;;;;;;;;3.75;3.75;;;;;31.53;30.82;101305.22;5009031;28;45791;-40
2023/07/05 09:36:56;;;;;;;;;4.25;3.00;;;;;32.51;29.96;101298.56;5016627;28;45434;-39
2023/07/05 09:39:41;;;;;;;;;3.00;3.00;;;;;35.08;27.97;101293.44;5013478;28;45444;-40
2023/07/05 09:42:13;;;;;;;;;2.25;2.00;;;;;37.30;26.56;101291.06;5018578;28;45510;-40
2023/07/05 09:44:39;;;;;;;;;3.75;1.75;;;;;39.04;24.20;101302.88;5020075;28;46174;-40
2023/07/05 09:47:04;;;;;;;;;1.25;1.25;;;;;39.58;23.01;101304.97;5009644;28;72606;-40
2023/07/05 09:49:30;;;;;;;;;3.50;1.25;;;;;38.02;22.27;101308.34;4998896;28;45722;-40
2023/07/05 09:51:55;;;;;;;;;3.75;3.00;;;;;35.68;24.28;101311.25;5013661;28;45464;-40
2023/07/05 09:54:29;;;;;;;;;2.75;2.75;;;;;33.60;25.67;101310.09;4995276;28;70947;-40
2023/07/05 09:57:06;;;;;;;;;2.75;2.75;;;;;32.04;26.89;101319.63;5018490;28;45447;-40
2023/07/05 09:59:32;;;;;;;;;3.25;2.00;;;;;31.11;28.04;101309.84;5016196;28;45509;-39
2023/07/05 10:02:12;;;;;;;;;2.00;2.00;;;;;30.20;29.45;101323.09;5017644;28;45541;-40
2023/07/05 10:04:52;;;;;;;;;4.25;4.25;;;;;29.88;29.46;101316.19;5018109;28;47121;-40
2023/07/05 10:07:23;;;;;;;;;3.00;3.00;;;;;29.34;29.99;101311.88;5017342;28;45390;-40
2023/07/05 10:10:01;;;;;;;;;1.75;1.75;;;;;28.35;30.59;101323.66;5022147;28;45170;-40
2023/07/05 10:12:32;;;;;;;;;1.25;1.00;;;;;27.47;31.44;101321.03;5017589;28;45336;-40
2023/07/05 10:14:58;;;;;;;;;8.00;4.25;;;;;26.62;32.69;101315.97;5017369;28;47403;-40
2023/07/05 10:17:23;;;;;;;;;2.50;2.50;;;;;25.89;34.04;101326.53;5010865;28;46085;-39
2023/07/05 10:19:55;;;;;;;;;5.00;2.00;;;;;25.70;34.59;101333.94;5012477;28;45344;-39
2023/07/05 10:22:27;;;;;;;;;3.75;2.75;;;;;26.98;34.46;101329.28;5010870;28;45417;-39
2023/07/05 10:25:00;;;;;;;;;3.50;3.50;;;;;27.65;33.55;101333.59;5012022;28;46018;-40
2023/07/05 10:27:32;;;;;;;;;4.00;4.00;;;;;27.82;32.96;101329.78;5012063;28;45395;-39
2023/07/05 10:30:12;;;;;;;;;5.33;5.00;;;;;27.79;32.79;101321.91;5011259;28;45515;-39
2023/07/05 10:32:38;;;;;;;;;3.33;2.33;;;;;27.42;32.88;101323.44;5011763;28;45714;-39
2023/07/05 10:35:16;;;;;;;;;4.00;4.00;;;;;27.17;33.46;101317.13;5009462;28;45652;-39
2023/07/05 10:37:42;;;;;;;;;5.00;5.00;;;;;27.02;33.39;101322.44;5015997;28;45475;-39
2023/07/05 10:40:10;;;;;;;;;7.25;4.25;;;;;28.34;33.49;101322.84;5016599;28;45565;-39
2023/07/05 10:42:41;;;;;;;;;2.75;2.75;;;;;30.55;31.80;101316.09;5012976;28;45634;-41
2023/07/05 10:45:13;;;;;;;;;6.00;6.00;;;;;31.54;29.48;101317.91;5016081;28;45420;-39
2023/07/05 10:47:39;;;;;;;;;3.00;3.00;;;;;31.45;29.53;101330.13;5016049;28;45521;-39
2023/07/05 10:50:06;;;;;;;;;4.25;3.00;;;;;31.36;29.74;101334.91;5009891;28;60511;-41
2023/07/05 10:52:37;;;;;;;;;3.00;2.75;;;;;32.03;29.01;101328.91;5015512;28;45375;-38
2023/07/05 10:55:13;;;;;;;;;3.25;1.75;;;;;31.92;27.94;101331.19;5013189;28;45730;-39
2023/07/05 10:57:42;;;;;;;;;5.33;2.67;;;;;31.83;28.48;101324.19;5018473;28;45491;-39
2023/07/05 11:00:21;;;;;;;;;0.50;0.50;;;;;32.65;28.04;101318.69;5014036;28;45364;-39
2023/07/05 11:03:00;;;;;;;;;2.50;1.25;;;;;33.42;26.81;101321.81;5013913;28;45536;-39
2023/07/05 11:05:43;;;;;;;;;1.00;1.00;;;;;32.99;27.22;101314.88;5009008;28;45617;-40
2023/07/05 11:08:25;;;;;;;;;3.50;2.75;;;;;32.31;27.59;101318.66;5013412;28;45761;-39
2023/07/05 11:10:52;;;;;;;;;4.00;2.50;;;;;32.45;27.67;101311.25;5017003;28;45301;-39
2023/07/05 11:13:18;;;;;;;;;2.00;2.00;;;;;32.85;27.34;101310.44;5006719;28;45502;-39
2023/07/05 11:15:44;;;;;;;;;5.50;3.00;;;;;33.13;26.68;101310.19;5013566;28;46326;-39
2023/07/05 11:18:17;;;;;;;;;2.00;1.00;;;;;33.15;26.98;101309.97;5002473;28;45471;-39
2023/07/05 11:20:52;;;;;;;;;3.00;3.00;;;;;32.61;26.48;101311.91;5023005;28;45561;-39
2023/07/05 11:23:42;;;;;;;;;1.00;1.00;;;;;31.96;26.89;101320.66;5008323;28;45503;-39
2023/07/05 11:26:08;;;;;;;;;1.00;1.00;;;;;31.03;27.35;101319.03;5016094;28;46935;-39
2023/07/05 11:28:39;;;;;;;;;3.00;2.75;;;;;30.36;28.09;101307.44;5017661;28;45388;-39
2023/07/05 11:31:07;;;;;;;;;3.50;3.50;;;;;29.90;29.38;101313.28;5016230;28;45483;-39